createdAt,value
2022-09-23T00:00:45.894Z,99.90
2022-09-23T00:03:48.193Z,99.90
2022-09-23T00:06:49.953Z,99.90
2022-09-23T00:09:51.761Z,99.90
2022-09-23T00:12:55.252Z,99.90
2022-09-23T00:15:57.043Z,99.90
2022-09-23T00:18:59.001Z,99.90
2022-09-23T00:22:00.765Z,99.90
2022-09-23T00:25:03.773Z,99.90
2022-09-23T00:28:05.682Z,99.90
2022-09-23T00:31:11.312Z,99.90
2022-09-23T00:34:13.181Z,99.90
2022-09-23T00:37:14.995Z,99.90
2022-09-23T00:40:17.056Z,99.90
2022-09-23T00:43:19.072Z,99.90
2022-09-23T00:46:39.860Z,99.90
2022-09-23T00:49:42.296Z,99.90
2022-09-23T00:52:44.441Z,99.90
2022-09-23T00:55:54.542Z,99.90
2022-09-23T00:58:56.423Z,99.90
2022-09-23T01:02:00.525Z,99.90
2022-09-23T01:05:04.782Z,99.90
2022-09-23T01:08:08.805Z,99.90
2022-09-23T01:11:19.509Z,99.90
2022-09-23T01:14:43.748Z,99.90
2022-09-23T01:18:12.224Z,99.90
2022-09-23T01:21:52.283Z,99.90
2022-09-23T01:25:33.278Z,99.90
2022-09-23T01:28:55.542Z,99.90
2022-09-23T01:32:44.039Z,99.90
2022-09-23T01:35:50.263Z,99.90
2022-09-23T01:39:17.186Z,99.90
2022-09-23T01:42:30.940Z,99.90
2022-09-23T01:45:55.740Z,99.90
2022-09-23T01:49:20.021Z,99.90
2022-09-23T01:52:30.403Z,99.90
2022-09-23T01:55:36.544Z,99.90
2022-09-23T01:58:57.166Z,99.90
2022-09-23T02:02:14.155Z,99.90
2022-09-23T02:05:24.033Z,99.90
2022-09-23T02:08:41.474Z,99.90
2022-09-23T02:11:47.630Z,99.90
2022-09-23T02:14:56.679Z,99.90
2022-09-23T02:18:08.166Z,99.90
2022-09-23T02:21:10.223Z,99.90
2022-09-23T02:24:18.382Z,99.90
2022-09-23T02:27:50.964Z,99.90
2022-09-23T02:31:09.867Z,99.90
2022-09-23T02:34:46.244Z,99.90
2022-09-23T02:38:20.824Z,99.90
2022-09-23T02:41:51.582Z,99.90
2022-09-23T02:44:53.584Z,99.90
2022-09-23T02:48:07.567Z,99.90
2022-09-23T02:51:10.268Z,99.90
2022-09-23T02:54:15.973Z,99.90
2022-09-23T02:57:17.954Z,99.90
2022-09-23T03:00:19.914Z,99.90
2022-09-23T03:03:27.698Z,99.90
2022-09-23T03:07:01.831Z,99.90
2022-09-23T03:10:24.890Z,99.90
2022-09-23T03:13:35.871Z,99.90
2022-09-23T03:16:58.777Z,99.90
2022-09-23T03:20:07.450Z,99.90
2022-09-23T03:23:12.183Z,99.90
2022-09-23T03:26:22.224Z,99.90
2022-09-23T03:29:24.243Z,99.90
2022-09-23T03:32:28.451Z,99.90
2022-09-23T03:35:33.905Z,99.90
2022-09-23T03:38:40.279Z,99.90
2022-09-23T03:41:49.398Z,99.90
2022-09-23T03:44:55.359Z,99.90
2022-09-23T03:47:57.247Z,99.90
2022-09-23T03:50:59.260Z,99.90
2022-09-23T03:54:01.226Z,99.90
2022-09-23T03:57:03.571Z,99.90
2022-09-23T04:00:07.022Z,99.90
2022-09-23T04:03:11.787Z,99.90
2022-09-23T04:06:13.964Z,99.90
2022-09-23T04:09:15.852Z,99.90
2022-09-23T04:12:17.828Z,99.90
2022-09-23T04:15:19.779Z,99.90
2022-09-23T04:18:21.665Z,99.90
2022-09-23T04:21:23.565Z,99.90
2022-09-23T04:24:25.631Z,99.90
2022-09-23T04:27:27.534Z,99.90
2022-09-23T04:30:29.394Z,99.90
2022-09-23T04:33:31.259Z,99.90
2022-09-23T04:36:33.133Z,99.90
2022-09-23T04:39:34.982Z,99.90
2022-09-23T04:42:36.824Z,99.90
2022-09-23T04:45:38.778Z,99.90
2022-09-23T04:48:41.335Z,99.90
2022-09-23T04:51:43.349Z,99.90
2022-09-23T04:54:45.299Z,99.90
2022-09-23T04:57:47.422Z,99.90
2022-09-23T05:00:49.425Z,99.90
2022-09-23T05:03:53.464Z,99.90
2022-09-23T05:06:57.457Z,99.90
2022-09-23T05:10:03.171Z,99.90
2022-09-23T05:13:05.065Z,99.90
2022-09-23T05:16:09.670Z,99.90
2022-09-23T05:19:11.596Z,99.90
2022-09-23T05:22:13.468Z,99.90
2022-09-23T05:25:15.460Z,99.90
2022-09-23T05:28:17.314Z,99.90
2022-09-23T05:31:21.345Z,99.90
2022-09-23T05:34:23.277Z,99.90
2022-09-23T05:37:25.164Z,99.90
2022-09-23T05:40:27.060Z,99.90
2022-09-23T05:43:29.382Z,99.90
2022-09-23T05:46:31.455Z,99.90
2022-09-23T05:49:57.951Z,99.90
2022-09-23T05:52:55.153Z,99.90
2022-09-23T05:55:57.575Z,99.90
2022-09-23T05:59:01.001Z,99.90
2022-09-23T06:02:02.983Z,99.90
2022-09-23T06:05:05.217Z,99.90
2022-09-23T06:08:08.215Z,99.90
2022-09-23T06:11:10.903Z,99.90
2022-09-23T06:14:14.101Z,99.90
2022-09-23T06:17:16.008Z,99.90
2022-09-23T06:20:17.866Z,99.90
2022-09-23T06:23:22.906Z,99.90
2022-09-23T06:26:26.683Z,99.90
2022-09-23T06:29:28.545Z,99.90
2022-09-23T06:32:30.443Z,99.90
2022-09-23T06:35:32.382Z,99.90
2022-09-23T06:38:34.888Z,99.90
2022-09-23T06:41:36.790Z,99.90
2022-09-23T06:44:38.648Z,99.90
2022-09-23T06:47:43.499Z,99.90
2022-09-23T06:50:45.373Z,99.90
2022-09-23T06:53:48.444Z,99.90
2022-09-23T06:56:50.334Z,99.90
2022-09-23T06:59:52.450Z,99.90
2022-09-23T07:02:54.409Z,99.90
2022-09-23T07:05:56.615Z,99.90
2022-09-23T07:08:58.528Z,99.90
2022-09-23T07:12:00.492Z,99.90
2022-09-23T07:15:02.868Z,99.90
2022-09-23T07:18:04.766Z,99.90
2022-09-23T07:21:12.171Z,99.90
2022-09-23T07:24:14.017Z,99.90
2022-09-23T07:27:15.862Z,99.90
2022-09-23T07:30:24.554Z,99.90
2022-09-23T07:33:32.311Z,99.90
2022-09-23T07:36:34.882Z,99.90
2022-09-23T07:39:36.868Z,99.90
2022-09-23T07:45:41.126Z,99.90
2022-09-23T07:48:43.584Z,98.80
2022-09-23T07:51:45.397Z,92.90
2022-09-23T07:54:47.719Z,91.60
2022-09-23T07:57:49.593Z,84.70
2022-09-23T08:03:53.787Z,79.50
2022-09-23T08:06:58.536Z,75.70
2022-09-23T08:10:01.591Z,70.10
2022-09-23T08:13:03.475Z,73.40
2022-09-23T08:16:06.106Z,69.30
2022-09-23T08:19:08.659Z,67.70
2022-09-23T08:22:10.438Z,69.10
2022-09-23T08:25:12.299Z,67.00
2022-09-23T08:28:15.622Z,68.40
2022-09-23T08:31:17.595Z,66.30
2022-09-23T08:34:22.679Z,67.00
2022-09-23T08:37:24.554Z,68.60
2022-09-23T08:40:26.513Z,67.70
2022-09-23T08:43:33.969Z,67.00
2022-09-23T08:46:39.463Z,64.10
2022-09-23T08:50:02.700Z,63.60
2022-09-23T08:53:12.174Z,63.00
2022-09-23T08:56:23.327Z,61.40
2022-09-23T08:59:37.165Z,62.80
2022-09-23T09:02:39.154Z,62.50
2022-09-23T09:08:47.220Z,61.60
2022-09-23T09:11:52.718Z,62.40
2022-09-23T09:15:20.470Z,62.90
2022-09-23T09:21:34.492Z,61.50
2022-09-23T09:27:40.584Z,62.20
2022-09-23T09:30:48.298Z,60.80
2022-09-23T09:33:53.839Z,62.90
2022-09-23T09:37:13.215Z,65.10
2022-09-23T09:40:16.221Z,57.90
2022-09-23T09:43:19.472Z,58.10
2022-09-23T09:46:52.329Z,56.70
2022-09-23T09:49:56.079Z,56.20
2022-09-23T09:53:21.365Z,58.10
2022-09-23T09:56:33.409Z,55.80
2022-09-23T09:59:35.838Z,58.00
2022-09-23T10:02:39.783Z,56.80
2022-09-23T10:05:44.440Z,56.60
2022-09-23T10:09:08.424Z,61.40
2022-09-23T10:12:15.915Z,57.80
2022-09-23T10:18:34.190Z,53.60
2022-09-23T10:21:37.403Z,53.60
2022-09-23T10:24:47.165Z,48.50
2022-09-23T10:34:27.637Z,58.00
2022-09-23T10:37:33.602Z,58.50
2022-09-23T10:40:44.013Z,60.40
2022-09-23T10:43:58.877Z,54.50
2022-09-23T10:47:13.672Z,53.50
2022-09-23T10:50:39.245Z,49.90
2022-09-23T10:54:13.236Z,52.60
2022-09-23T11:00:23.571Z,53.80
2022-09-23T11:03:50.376Z,54.90
2022-09-23T11:10:29.142Z,50.60
2022-09-23T11:13:49.134Z,49.10
2022-09-23T11:17:17.943Z,48.30
2022-09-23T11:20:50.017Z,54.80
2022-09-23T11:24:09.733Z,54.60
2022-09-23T11:27:35.812Z,55.50
2022-09-23T11:31:00.680Z,59.10
2022-09-23T11:34:32.459Z,61.30
2022-09-23T11:37:40.318Z,56.20
2022-09-23T11:40:46.709Z,56.80
2022-09-23T11:43:53.129Z,58.00
2022-09-23T11:46:58.515Z,59.90
2022-09-23T11:50:09.931Z,59.90
2022-09-23T11:53:36.394Z,70.20
2022-09-23T11:56:47.233Z,70.60
2022-09-23T11:59:56.398Z,63.50
2022-09-23T12:03:21.808Z,64.00
2022-09-23T12:06:33.078Z,60.00
2022-09-23T12:10:02.734Z,52.70
2022-09-23T12:13:10.361Z,52.30
2022-09-23T12:16:39.820Z,57.10
2022-09-23T12:20:29.095Z,55.70
2022-09-23T12:23:53.986Z,55.60
2022-09-23T12:27:00.007Z,51.00
2022-09-23T12:30:05.422Z,51.40
2022-09-23T12:33:28.852Z,49.70
2022-09-23T12:36:34.157Z,49.00
2022-09-23T12:39:38.159Z,51.50
2022-09-23T12:42:48.367Z,48.60
2022-09-23T12:45:50.949Z,56.90
2022-09-23T12:55:21.450Z,58.20
2022-09-23T12:58:58.201Z,59.40
2022-09-23T13:02:27.374Z,58.90
2022-09-23T13:05:30.336Z,62.00
2022-09-23T13:08:35.778Z,65.20
2022-09-23T13:14:43.908Z,60.80
2022-09-23T13:17:45.836Z,60.80
2022-09-23T13:20:49.162Z,66.60
2022-09-23T13:24:13.058Z,67.40
2022-09-23T13:30:26.405Z,58.80
2022-09-23T13:33:46.183Z,59.50
2022-09-23T13:36:48.783Z,51.90
2022-09-23T13:39:51.332Z,55.40
2022-09-23T13:42:59.327Z,56.90
2022-09-23T13:46:03.212Z,57.30
2022-09-23T13:49:06.039Z,55.40
2022-09-23T13:52:26.903Z,53.70
2022-09-23T13:55:32.189Z,55.30
2022-09-23T13:58:35.338Z,49.30
2022-09-23T14:01:37.325Z,50.10
2022-09-23T14:04:39.733Z,49.70
2022-09-23T14:07:41.549Z,50.20
2022-09-23T14:10:45.901Z,45.70
2022-09-23T14:13:52.640Z,48.90
2022-09-23T14:23:26.052Z,44.80
2022-09-23T14:26:28.047Z,43.00
2022-09-23T14:29:42.792Z,50.90
2022-09-23T14:32:45.247Z,50.60
2022-09-23T14:35:49.655Z,43.80
2022-09-23T14:38:51.601Z,43.40
2022-09-23T14:44:55.935Z,45.50
2022-09-23T14:48:01.149Z,44.00
2022-09-23T14:51:07.519Z,44.50
2022-09-23T14:54:32.465Z,47.70
2022-09-23T15:00:37.032Z,49.10
2022-09-23T15:03:46.841Z,49.80
2022-09-23T15:06:59.362Z,55.20
2022-09-23T15:10:01.360Z,55.20
2022-09-23T15:13:12.274Z,52.70
2022-09-23T15:16:16.678Z,52.80
2022-09-23T15:19:20.930Z,56.10
2022-09-23T15:22:24.945Z,52.80
2022-09-23T15:25:40.549Z,58.90
2022-09-23T15:28:43.066Z,58.30
2022-09-23T15:31:44.947Z,50.20
2022-09-23T15:34:49.151Z,58.60
2022-09-23T15:40:53.723Z,59.30
2022-09-23T15:46:57.961Z,62.40
2022-09-23T15:53:02.343Z,68.10
2022-09-23T15:56:04.972Z,69.10
2022-09-23T15:59:06.913Z,72.70
2022-09-23T16:02:19.785Z,76.20
2022-09-23T16:05:39.533Z,78.80
2022-09-23T16:11:45.898Z,81.00
2022-09-23T16:14:47.757Z,81.00
2022-09-23T16:20:52.159Z,91.30
2022-09-23T16:23:54.458Z,92.20
2022-09-23T16:26:57.815Z,92.50
2022-09-23T16:29:59.782Z,93.50
2022-09-23T16:33:01.657Z,96.50
2022-09-23T16:39:08.572Z,99.10
2022-09-23T16:45:14.127Z,99.90
2022-09-23T16:48:16.016Z,99.90
2022-09-23T16:51:20.430Z,99.90
2022-09-23T16:54:22.362Z,99.90
2022-09-23T16:57:24.238Z,99.90
2022-09-23T17:00:26.176Z,99.90
2022-09-23T17:03:28.032Z,99.90
2022-09-23T17:09:32.596Z,99.90
2022-09-23T17:15:38.867Z,99.90
2022-09-23T17:18:40.741Z,99.90
2022-09-23T17:21:42.681Z,99.90
2022-09-23T17:24:44.559Z,99.90
2022-09-23T17:27:50.901Z,99.90
2022-09-23T17:30:57.694Z,99.90
2022-09-23T17:33:59.588Z,99.90
2022-09-23T17:40:05.235Z,99.90
2022-09-23T17:43:08.096Z,99.90
2022-09-23T17:46:13.103Z,99.90
2022-09-23T17:52:19.122Z,99.90
2022-09-23T17:55:21.010Z,99.90
2022-09-23T17:58:30.840Z,99.90
2022-09-23T18:01:32.797Z,99.90
2022-09-23T18:04:34.678Z,99.90
2022-09-23T18:07:36.571Z,99.90
2022-09-23T18:10:38.448Z,99.90
2022-09-23T18:13:40.381Z,99.90
2022-09-23T18:16:44.739Z,99.90
2022-09-23T18:28:54.770Z,99.90
2022-09-23T18:34:58.923Z,99.90
2022-09-23T18:41:03.130Z,99.90
2022-09-23T18:44:05.191Z,99.90
2022-09-23T18:50:12.248Z,99.90
2022-09-23T18:53:14.138Z,99.90
2022-09-23T18:56:19.586Z,99.90
2022-09-23T18:59:23.836Z,99.90
2022-09-23T19:02:25.763Z,99.90
2022-09-23T19:05:27.640Z,99.90
2022-09-23T19:08:29.569Z,99.90
2022-09-23T19:14:33.913Z,99.90
2022-09-23T19:20:38.117Z,99.90
2022-09-23T19:23:44.661Z,99.90
2022-09-23T19:26:46.559Z,99.90
2022-09-23T19:32:50.703Z,99.90
2022-09-23T19:35:52.752Z,99.90
2022-09-23T19:38:56.685Z,99.90
2022-09-23T19:45:01.043Z,99.90
2022-09-23T19:48:03.151Z,99.90
2022-09-23T19:51:05.129Z,99.90
2022-09-23T19:54:08.325Z,99.90
2022-09-23T19:57:10.284Z,99.90
2022-09-23T20:00:14.090Z,99.90
2022-09-23T20:03:15.983Z,99.90
2022-09-23T20:06:18.308Z,99.90
2022-09-23T20:09:20.195Z,99.90
2022-09-23T20:12:22.088Z,99.90
2022-09-23T20:15:23.960Z,99.90
2022-09-23T20:18:25.806Z,99.90
2022-09-23T20:21:28.923Z,99.90
2022-09-23T20:24:30.817Z,99.90
2022-09-23T20:27:32.677Z,99.90
2022-09-23T20:30:34.540Z,99.90
2022-09-23T20:33:36.412Z,99.90
2022-09-23T20:36:39.609Z,99.90
2022-09-23T20:39:41.491Z,99.90
2022-09-23T20:42:43.344Z,99.90
2022-09-23T20:45:50.478Z,99.90
2022-09-23T20:48:52.625Z,99.90
2022-09-23T20:51:54.495Z,99.90
2022-09-23T20:54:56.345Z,99.90
2022-09-23T20:57:58.232Z,99.90
2022-09-23T21:01:01.590Z,99.90
2022-09-23T21:04:04.360Z,99.90
2022-09-23T21:07:06.287Z,99.90
2022-09-23T21:10:08.245Z,99.90
2022-09-23T21:13:10.123Z,99.90
2022-09-23T21:16:12.806Z,99.90
2022-09-23T21:19:14.690Z,99.90
2022-09-23T21:22:16.587Z,99.90
2022-09-23T21:25:27.988Z,99.90
2022-09-23T21:28:36.085Z,99.90
2022-09-23T21:31:38.043Z,99.90
2022-09-23T21:34:39.954Z,99.90
2022-09-23T21:37:41.822Z,99.90
2022-09-23T21:40:43.697Z,99.90
2022-09-23T21:43:45.837Z,99.90
2022-09-23T21:46:47.752Z,99.90
2022-09-23T21:49:50.911Z,99.90
2022-09-23T21:52:52.985Z,99.90
2022-09-23T21:56:04.129Z,99.90
2022-09-23T21:59:06.571Z,99.90
2022-09-23T22:02:08.311Z,99.90
2022-09-23T22:08:12.474Z,99.90
2022-09-23T22:11:18.697Z,99.90
2022-09-23T22:14:22.385Z,99.90
2022-09-23T22:17:24.245Z,99.90
2022-09-23T22:20:26.218Z,99.90
2022-09-23T22:23:28.077Z,99.90
2022-09-23T22:26:33.142Z,99.90
2022-09-23T22:29:35.053Z,99.90
2022-09-23T22:32:36.960Z,99.90
2022-09-23T22:35:38.837Z,99.90
2022-09-23T22:41:43.094Z,99.90
2022-09-23T22:44:44.957Z,99.90
2022-09-23T22:47:46.851Z,99.90
2022-09-23T22:50:48.721Z,99.90
2022-09-23T22:53:51.884Z,99.90
2022-09-23T22:56:53.876Z,99.90
2022-09-23T23:02:58.042Z,99.90
2022-09-23T23:06:04.845Z,99.90
2022-09-23T23:09:14.127Z,99.90
2022-09-23T23:12:16.338Z,99.90
2022-09-23T23:15:18.224Z,99.90
2022-09-23T23:18:20.094Z,99.90
2022-09-23T23:21:22.277Z,99.90
2022-09-23T23:24:24.706Z,99.90
2022-09-23T23:27:26.491Z,99.90
2022-09-23T23:30:28.417Z,99.90
2022-09-23T23:33:30.561Z,99.90
2022-09-23T23:36:32.469Z,99.90
2022-09-23T23:39:34.441Z,99.90
2022-09-23T23:42:36.275Z,99.90
2022-09-23T23:45:38.141Z,99.90
2022-09-23T23:48:40.339Z,99.90
2022-09-23T23:51:42.277Z,99.90
2022-09-23T23:54:44.206Z,99.90
